createdAt,value
2019-05-30T00:00:17.683Z,99315.52
2019-05-30T00:02:43.504Z,99318.96
2019-05-30T00:05:13.522Z,99318.60
2019-05-30T00:07:42.878Z,99318.60
2019-05-30T00:10:12.331Z,99315.19
2019-05-30T00:12:41.686Z,99314.94
2019-05-30T00:15:11.028Z,99309.95
2019-05-30T00:17:40.392Z,99312.16
2019-05-30T00:20:09.871Z,99320.02
2019-05-30T00:22:39.216Z,99311.47
2019-05-30T00:25:09.883Z,99321.34
2019-05-30T00:27:39.314Z,99324.84
2019-05-30T00:30:23.461Z,99327.64
2019-05-30T00:32:40.156Z,99335.05
2019-05-30T00:35:09.695Z,99337.02
2019-05-30T00:37:39.062Z,99329.28
2019-05-30T00:40:08.694Z,99335.36
2019-05-30T00:42:38.120Z,99334.22
2019-05-30T00:45:20.005Z,99332.00
2019-05-30T00:47:39.058Z,99331.14
2019-05-30T00:50:08.711Z,99335.06
2019-05-30T00:52:38.072Z,99333.21
2019-05-30T00:55:07.596Z,99339.97
2019-05-30T00:57:37.015Z,99334.38
2019-05-30T01:00:08.007Z,99335.48
2019-05-30T01:02:37.475Z,99338.55
2019-05-30T01:05:08.511Z,99340.23
2019-05-30T01:07:37.939Z,99349.39
2019-05-30T01:10:08.118Z,99343.23
2019-05-30T01:12:37.846Z,99345.49
2019-05-30T01:15:08.159Z,99351.28
2019-05-30T01:17:37.586Z,99356.36
2019-05-30T01:20:07.686Z,99354.92
2019-05-30T01:22:37.194Z,99355.84
2019-05-30T01:25:08.408Z,99363.59
2019-05-30T01:27:37.844Z,99358.27
2019-05-30T01:30:09.262Z,99358.69
2019-05-30T01:32:38.715Z,99364.22
2019-05-30T01:35:08.582Z,99370.03
2019-05-30T01:37:37.947Z,99370.03
2019-05-30T01:40:09.035Z,99372.61
2019-05-30T01:42:38.550Z,99372.00
2019-05-30T01:45:09.141Z,99371.01
2019-05-30T01:47:38.559Z,99372.83
2019-05-30T01:50:10.245Z,99374.85
2019-05-30T01:52:39.612Z,99371.15
2019-05-30T01:55:10.166Z,99366.83
2019-05-30T01:57:39.621Z,99369.89
2019-05-30T02:00:20.029Z,99380.64
2019-05-30T02:02:42.759Z,99385.61
2019-05-30T02:05:14.259Z,99389.31
2019-05-30T02:07:43.652Z,99385.12
2019-05-30T02:10:13.301Z,99389.31
2019-05-30T02:12:42.910Z,99394.62
2019-05-30T02:15:12.833Z,99397.38
2019-05-30T02:17:42.284Z,99406.67
2019-05-30T02:20:12.192Z,99415.04
2019-05-30T02:22:41.602Z,99414.76
2019-05-30T02:25:11.280Z,99420.84
2019-05-30T02:27:40.643Z,99420.91
2019-05-30T02:30:12.697Z,99423.56
2019-05-30T02:32:41.789Z,99427.14
2019-05-30T02:35:12.872Z,99430.13
2019-05-30T02:37:42.420Z,99429.02
2019-05-30T02:40:15.274Z,99430.06
2019-05-30T02:42:43.535Z,99429.45
2019-05-30T02:45:13.152Z,99440.50
2019-05-30T02:47:42.556Z,99433.66
2019-05-30T02:50:14.078Z,99430.02
2019-05-30T02:52:43.792Z,99437.98
2019-05-30T02:55:13.934Z,99435.89
2019-05-30T02:57:43.403Z,99434.41
2019-05-30T03:00:17.122Z,99437.77
2019-05-30T03:02:44.671Z,99440.22
2019-05-30T03:05:15.165Z,99439.69
2019-05-30T03:07:44.670Z,99445.89
2019-05-30T03:10:15.413Z,99452.25
2019-05-30T03:12:45.100Z,99449.80
2019-05-30T03:15:15.792Z,99451.34
2019-05-30T03:17:45.543Z,99459.31
2019-05-30T03:20:22.814Z,99460.95
2019-05-30T03:22:46.493Z,99458.00
2019-05-30T03:25:16.449Z,99465.44
2019-05-30T03:27:45.960Z,99472.09
2019-05-30T03:30:25.875Z,99478.17
2019-05-30T03:33:15.831Z,99483.61
2019-05-30T03:35:27.558Z,99485.16
2019-05-30T03:37:49.116Z,99493.91
2019-05-30T03:40:20.738Z,99498.10
2019-05-30T03:42:51.300Z,99498.10
2019-05-30T03:45:25.413Z,99492.80
2019-05-30T03:47:59.261Z,99486.26
2019-05-30T03:50:30.803Z,99500.89
2019-05-30T03:53:00.307Z,99499.23
2019-05-30T03:55:32.368Z,99499.23
2019-05-30T03:58:23.989Z,99494.26
2019-05-30T04:01:12.639Z,99502.77
2019-05-30T04:03:56.743Z,99502.77
2019-05-30T04:06:31.989Z,99505.64
2019-05-30T04:09:07.263Z,99505.64
2019-05-30T04:11:48.761Z,99517.19
2019-05-30T04:14:21.202Z,99515.67
2019-05-30T04:16:50.625Z,99531.31
2019-05-30T04:19:20.279Z,99531.31
2019-05-30T04:21:49.809Z,99532.79
2019-05-30T04:24:19.742Z,99532.79
2019-05-30T04:26:51.445Z,99535.66
2019-05-30T04:29:20.515Z,99528.52
2019-05-30T04:31:49.895Z,99528.52
2019-05-30T04:34:26.903Z,99531.88
2019-05-30T04:36:58.933Z,99530.23
2019-05-30T04:39:28.333Z,99532.73
2019-05-30T04:41:58.520Z,99529.72
2019-05-30T04:44:28.184Z,99529.72
2019-05-30T04:46:57.632Z,99532.41
2019-05-30T04:49:27.099Z,99533.73
2019-05-30T04:51:56.613Z,99531.22
2019-05-30T04:54:26.115Z,99532.72
2019-05-30T04:56:55.308Z,99539.91
2019-05-30T04:59:24.951Z,99539.91
2019-05-30T05:01:57.262Z,99546.42
2019-05-30T05:04:26.718Z,99562.78
2019-05-30T05:06:56.088Z,99567.66
2019-05-30T05:09:25.303Z,99559.03
2019-05-30T05:11:54.709Z,99559.03
2019-05-30T05:14:24.355Z,99571.36
2019-05-30T05:16:53.766Z,99571.36
2019-05-30T05:19:25.642Z,99571.88
2019-05-30T05:21:54.028Z,99573.36
2019-05-30T05:24:23.670Z,99576.32
2019-05-30T05:26:52.841Z,99576.28
2019-05-30T05:29:22.044Z,99569.57
2019-05-30T05:31:51.218Z,99568.36
2019-05-30T05:34:20.692Z,99580.72
2019-05-30T05:36:49.916Z,99582.67
2019-05-30T05:39:20.075Z,99584.41
2019-05-30T05:41:49.156Z,99584.23
2019-05-30T05:44:18.380Z,99594.91
2019-05-30T05:46:48.098Z,99593.94
2019-05-30T05:49:20.587Z,99591.27
2019-05-30T05:51:50.122Z,99597.98
2019-05-30T05:54:19.281Z,99598.85
2019-05-30T05:56:48.709Z,99596.19
2019-05-30T05:59:19.084Z,99598.03
2019-05-30T06:01:50.899Z,99598.22
2019-05-30T06:04:21.125Z,99599.09
2019-05-30T06:06:50.418Z,99599.18
2019-05-30T06:09:22.563Z,99598.82
2019-05-30T06:11:50.681Z,99600.00
2019-05-30T06:14:19.999Z,99596.23
2019-05-30T06:16:49.150Z,99600.16
2019-05-30T06:19:21.276Z,99594.72
2019-05-30T06:21:54.588Z,99609.38
2019-05-30T06:24:23.866Z,99605.86
2019-05-30T06:27:02.089Z,99605.74
2019-05-30T06:29:31.373Z,99600.53
2019-05-30T06:32:00.604Z,99599.22
2019-05-30T06:34:38.888Z,99602.95
2019-05-30T06:37:12.224Z,99605.70
2019-05-30T06:39:48.760Z,99605.11
2019-05-30T06:42:28.243Z,99614.39
2019-05-30T06:44:57.422Z,99613.14
2019-05-30T06:47:26.731Z,99613.47
2019-05-30T06:49:56.047Z,99621.45
2019-05-30T06:52:25.382Z,99616.97
2019-05-30T06:54:58.568Z,99616.12
2019-05-30T06:57:59.909Z,99614.57
2019-05-30T07:00:02.241Z,99612.04
2019-05-30T07:02:54.745Z,99611.09
2019-05-30T07:05:39.061Z,99613.23
2019-05-30T07:08:40.205Z,99610.73
2019-05-30T07:11:13.638Z,99620.84
2019-05-30T07:13:42.779Z,99614.48
2019-05-30T07:16:25.332Z,99614.31
2019-05-30T07:18:54.935Z,99616.23
2019-05-30T07:21:27.655Z,99619.25
2019-05-30T07:24:00.443Z,99606.50
2019-05-30T07:26:35.824Z,99602.41
2019-05-30T07:29:05.231Z,99601.27
2019-05-30T07:31:41.669Z,99608.34
2019-05-30T07:40:20.834Z,99602.30
2019-05-30T07:42:54.060Z,99604.36
2019-05-30T07:48:30.182Z,99598.52
2019-05-30T07:51:01.731Z,99612.90
2019-05-30T07:53:32.805Z,99604.09
2019-05-30T07:56:07.476Z,99605.66
2019-05-30T07:58:37.405Z,99606.52
2019-05-30T08:01:10.529Z,99603.38
2019-05-30T08:03:42.385Z,99609.31
2019-05-30T08:06:22.132Z,99606.27
2019-05-30T08:08:52.354Z,99604.30
2019-05-30T08:14:26.983Z,99604.41
2019-05-30T08:16:59.423Z,99598.23
2019-05-30T08:19:32.751Z,99598.97
2019-05-30T08:22:05.327Z,99596.03
2019-05-30T08:24:41.195Z,99592.67
2019-05-30T08:27:17.227Z,99591.41
2019-05-30T08:29:46.565Z,99599.20
2019-05-30T08:32:15.788Z,99593.77
2019-05-30T08:34:45.175Z,99586.30
2019-05-30T08:37:16.003Z,99589.37
2019-05-30T08:39:45.391Z,99591.92
2019-05-30T08:42:14.703Z,99587.73
2019-05-30T08:44:46.133Z,99592.12
2019-05-30T08:47:20.059Z,99587.34
2019-05-30T08:49:50.672Z,99580.94
2019-05-30T08:52:30.268Z,99578.32
2019-05-30T08:55:01.908Z,99585.30
2019-05-30T08:57:30.862Z,99583.90
2019-05-30T09:00:00.294Z,99578.75
2019-05-30T09:02:38.802Z,99584.16
2019-05-30T09:05:07.082Z,99583.64
2019-05-30T09:07:40.444Z,99573.63
2019-05-30T09:10:22.293Z,99573.07
2019-05-30T09:13:09.139Z,99580.33
2019-05-30T09:15:41.064Z,99575.09
2019-05-30T09:18:13.598Z,99577.98
2019-05-30T09:23:38.639Z,99569.70
2019-05-30T09:26:08.179Z,99580.23
2019-05-30T09:28:40.669Z,99578.17
2019-05-30T09:31:12.934Z,99570.66
2019-05-30T09:33:48.570Z,99570.08
2019-05-30T09:36:20.789Z,99570.27
2019-05-30T09:38:50.292Z,99566.91
2019-05-30T09:41:19.503Z,99571.45
2019-05-30T09:44:14.701Z,99564.08
2019-05-30T09:46:37.629Z,99564.08
2019-05-30T09:49:07.132Z,99558.18
2019-05-30T09:51:39.180Z,99560.86
2019-05-30T09:54:15.660Z,99554.62
2019-05-30T09:56:48.552Z,99553.73
2019-05-30T09:59:17.627Z,99565.53
2019-05-30T10:01:50.173Z,99565.59
2019-05-30T10:04:19.526Z,99561.14
2019-05-30T10:06:50.515Z,99567.23
2019-05-30T10:09:25.948Z,99555.52
2019-05-30T10:11:58.613Z,99553.36
2019-05-30T10:14:40.895Z,99554.39
2019-05-30T10:17:07.381Z,99547.79
2019-05-30T10:19:38.147Z,99548.03
2019-05-30T10:22:24.548Z,99544.11
2019-05-30T10:27:57.799Z,99549.41
2019-05-30T10:30:27.942Z,99549.10
2019-05-30T10:32:57.120Z,99553.32
2019-05-30T10:35:57.631Z,99547.52
2019-05-30T10:38:06.199Z,99553.33
2019-05-30T10:40:35.548Z,99550.50
2019-05-30T10:46:13.712Z,99553.63
2019-05-30T10:48:35.990Z,99545.64
2019-05-30T10:51:08.497Z,99543.17
2019-05-30T10:53:42.539Z,99541.95
2019-05-30T10:56:19.603Z,99545.19
2019-05-30T10:58:52.856Z,99538.60
2019-05-30T11:01:31.586Z,99534.61
2019-05-30T11:04:08.189Z,99537.05
2019-05-30T11:07:11.623Z,99539.04
2019-05-30T11:09:53.289Z,99544.84
2019-05-30T11:12:31.663Z,99545.08
2019-05-30T11:18:02.371Z,99540.38
2019-05-30T11:20:38.457Z,99535.66
2019-05-30T11:23:13.710Z,99526.30
2019-05-30T11:25:50.491Z,99526.13
2019-05-30T11:28:21.975Z,99518.43
2019-05-30T11:30:58.948Z,99515.77
2019-05-30T11:33:40.833Z,99515.32
2019-05-30T11:36:13.550Z,99520.88
2019-05-30T11:38:47.030Z,99509.52
2019-05-30T11:41:16.440Z,99504.06
2019-05-30T11:43:55.556Z,99512.97
2019-05-30T11:46:29.188Z,99513.55
2019-05-30T11:49:04.611Z,99505.64
2019-05-30T11:51:37.872Z,99505.31
2019-05-30T11:54:24.958Z,99506.89
2019-05-30T11:57:08.199Z,99503.43
2019-05-30T11:59:39.915Z,99495.80
2019-05-30T12:02:09.246Z,99488.42
2019-05-30T12:04:58.613Z,99499.59
2019-05-30T12:07:35.101Z,99492.03
2019-05-30T12:09:50.761Z,99492.31
2019-05-30T12:12:22.996Z,99491.82
2019-05-30T12:14:59.464Z,99496.77
2019-05-30T12:17:40.475Z,99492.05
2019-05-30T12:20:13.015Z,99489.00
2019-05-30T12:25:37.116Z,99478.56
2019-05-30T12:28:15.272Z,99485.07
2019-05-30T12:30:56.891Z,99486.69
2019-05-30T12:33:18.805Z,99480.89
2019-05-30T12:38:47.148Z,99480.55
2019-05-30T12:41:18.892Z,99476.63
2019-05-30T12:43:47.618Z,99470.45
2019-05-30T12:46:29.936Z,99465.52
2019-05-30T12:49:06.557Z,99470.97
2019-05-30T12:51:56.469Z,99462.75
2019-05-30T12:54:25.462Z,99469.44
2019-05-30T12:59:44.216Z,99456.59
2019-05-30T13:02:13.585Z,99461.67
2019-05-30T13:04:50.640Z,99458.91
2019-05-30T13:07:21.429Z,99462.16
2019-05-30T13:09:59.492Z,99457.51
2019-05-30T13:12:30.766Z,99451.44
2019-05-30T13:15:03.817Z,99456.36
2019-05-30T13:17:44.198Z,99458.59
2019-05-30T13:20:27.069Z,99452.91
2019-05-30T13:22:56.349Z,99461.84
2019-05-30T13:25:25.957Z,99451.49
2019-05-30T13:28:08.074Z,99454.50
2019-05-30T13:33:43.324Z,99455.13
2019-05-30T13:36:19.121Z,99453.09
2019-05-30T13:38:54.051Z,99459.22
2019-05-30T13:41:30.674Z,99452.90
2019-05-30T13:47:02.865Z,99456.44
2019-05-30T13:49:43.722Z,99457.09
2019-05-30T13:55:14.595Z,99451.78
2019-05-30T14:03:47.858Z,99439.69
2019-05-30T14:09:15.045Z,99449.16
2019-05-30T14:12:06.734Z,99443.59
2019-05-30T14:14:26.030Z,99445.99
2019-05-30T14:17:02.820Z,99439.41
2019-05-30T14:19:57.507Z,99440.31
2019-05-30T14:25:07.623Z,99444.78
2019-05-30T14:27:39.004Z,99441.09
2019-05-30T14:30:12.925Z,99441.63
2019-05-30T14:33:06.019Z,99441.05
2019-05-30T14:35:26.778Z,99440.44
2019-05-30T14:38:05.065Z,99443.39
2019-05-30T14:40:40.642Z,99441.52
2019-05-30T14:43:13.580Z,99442.42
2019-05-30T14:45:43.108Z,99433.13
2019-05-30T14:48:12.605Z,99440.46
2019-05-30T14:50:46.304Z,99438.62
2019-05-30T14:53:20.136Z,99431.64
2019-05-30T14:55:53.028Z,99428.42
2019-05-30T14:58:42.280Z,99424.52
2019-05-30T15:01:28.178Z,99419.77
2019-05-30T15:04:13.445Z,99418.95
2019-05-30T15:06:41.605Z,99414.11
2019-05-30T15:09:21.157Z,99415.24
2019-05-30T15:11:42.088Z,99410.55
2019-05-30T15:14:11.412Z,99413.20
2019-05-30T15:16:44.964Z,99412.91
2019-05-30T15:19:35.463Z,99411.23
2019-05-30T15:21:59.815Z,99414.95
2019-05-30T15:24:30.683Z,99415.09
2019-05-30T15:27:01.620Z,99414.83
2019-05-30T15:29:39.714Z,99415.80
2019-05-30T15:32:14.541Z,99413.89
2019-05-30T15:34:52.565Z,99412.70
2019-05-30T15:37:21.962Z,99410.75
2019-05-30T15:39:55.630Z,99412.25
2019-05-30T15:42:26.459Z,99410.91
2019-05-30T15:44:57.503Z,99402.67
2019-05-30T15:47:28.751Z,99406.74
2019-05-30T15:52:59.526Z,99400.06
2019-05-30T15:58:31.307Z,99397.53
2019-05-30T16:01:00.875Z,99395.02
2019-05-30T16:03:30.045Z,99395.39
2019-05-30T16:05:59.278Z,99396.57
2019-05-30T16:08:31.309Z,99405.23
2019-05-30T16:11:00.447Z,99403.05
2019-05-30T16:13:29.870Z,99398.94
2019-05-30T16:15:59.484Z,99401.17
2019-05-30T16:18:30.652Z,99404.80
2019-05-30T16:20:59.623Z,99407.77
2019-05-30T16:23:28.919Z,99399.55
2019-05-30T16:25:58.221Z,99400.42
2019-05-30T16:28:27.568Z,99407.16
2019-05-30T16:30:58.796Z,99395.91
2019-05-30T16:33:32.777Z,99403.88
2019-05-30T16:36:01.988Z,99397.38
2019-05-30T16:38:36.078Z,99402.09
2019-05-30T16:41:04.899Z,99397.41
2019-05-30T16:43:36.669Z,99393.99
2019-05-30T16:46:06.341Z,99395.55
2019-05-30T16:48:35.587Z,99384.30
2019-05-30T16:51:04.797Z,99385.69
2019-05-30T16:53:37.104Z,99386.55
2019-05-30T16:56:06.456Z,99382.63
2019-05-30T16:58:54.612Z,99378.27
2019-05-30T17:01:27.222Z,99375.14
2019-05-30T17:04:03.179Z,99376.92
2019-05-30T17:06:37.127Z,99377.84
2019-05-30T17:09:06.931Z,99378.57
2019-05-30T17:11:41.552Z,99389.91
2019-05-30T17:14:13.816Z,99382.23
2019-05-30T17:16:45.425Z,99380.25
2019-05-30T17:19:22.301Z,99372.38
2019-05-30T17:21:56.043Z,99379.34
2019-05-30T17:27:20.139Z,99393.35
2019-05-30T17:29:52.303Z,99398.20
2019-05-30T17:35:16.266Z,99421.40
2019-05-30T17:37:49.074Z,99419.69
2019-05-30T17:40:18.644Z,99424.34
2019-05-30T17:42:50.130Z,99431.24
2019-05-30T17:45:21.345Z,99423.00
2019-05-30T17:48:13.418Z,99423.00
2019-05-30T17:50:30.684Z,99447.47
2019-05-30T17:53:00.554Z,99447.47
2019-05-30T17:55:30.184Z,99484.13
2019-05-30T17:57:59.660Z,99514.45
2019-05-30T18:00:30.624Z,99530.09
2019-05-30T18:02:59.947Z,99547.11
2019-05-30T18:05:30.851Z,99547.11
2019-05-30T18:08:00.646Z,99549.79
2019-05-30T18:10:31.189Z,99549.79
2019-05-30T18:13:01.187Z,99554.82
2019-05-30T18:15:32.416Z,99552.60
2019-05-30T18:18:04.100Z,99523.64
2019-05-30T18:20:47.743Z,99549.99
2019-05-30T18:23:06.283Z,99549.99
2019-05-30T18:25:35.981Z,99542.92
2019-05-30T18:28:05.522Z,99536.29
2019-05-30T18:30:40.187Z,99536.66
2019-05-30T18:33:09.819Z,99534.62
2019-05-30T18:35:39.476Z,99534.62
2019-05-30T18:38:08.985Z,99552.12
2019-05-30T18:40:39.008Z,99552.12
2019-05-30T18:43:08.680Z,99545.03
2019-05-30T18:45:40.580Z,99544.27
2019-05-30T18:48:11.632Z,99546.00
2019-05-30T18:50:41.368Z,99546.00
2019-05-30T18:53:11.313Z,99553.39
2019-05-30T18:55:40.778Z,99553.39
2019-05-30T18:58:10.192Z,99550.98
2019-05-30T19:00:39.745Z,99556.97
2019-05-30T19:03:09.406Z,99555.81
2019-05-30T19:05:38.847Z,99560.70
2019-05-30T19:08:08.329Z,99560.70
2019-05-30T19:10:37.924Z,99560.30
2019-05-30T19:13:07.576Z,99560.30
2019-05-30T19:15:37.638Z,99562.03
2019-05-30T19:18:09.212Z,99561.67
2019-05-30T19:20:39.128Z,99567.34
2019-05-30T19:23:08.688Z,99571.34
2019-05-30T19:25:38.181Z,99573.33
2019-05-30T19:28:07.709Z,99571.44
2019-05-30T19:30:40.454Z,99572.30
2019-05-30T19:33:08.596Z,99570.59
2019-05-30T19:35:38.309Z,99570.59
2019-05-30T19:38:07.862Z,99592.85
2019-05-30T19:40:38.022Z,99603.59
2019-05-30T19:43:07.700Z,99608.33
2019-05-30T19:45:38.350Z,99615.41
2019-05-30T19:48:07.904Z,99615.41
2019-05-30T19:50:37.365Z,99614.39
2019-05-30T19:53:06.813Z,99616.63
2019-05-30T19:55:37.551Z,99614.81
2019-05-30T19:58:07.094Z,99615.05
2019-05-30T20:00:54.449Z,99615.05
2019-05-30T20:03:07.925Z,99624.39
2019-05-30T20:05:38.821Z,99628.50
2019-05-30T20:08:08.426Z,99620.35
2019-05-30T20:10:39.129Z,99625.24
2019-05-30T20:13:08.662Z,99628.23
2019-05-30T20:15:38.032Z,99631.44
2019-05-30T20:18:07.587Z,99631.44
2019-05-30T20:20:50.383Z,99628.06
2019-05-30T20:23:08.360Z,99621.66
2019-05-30T20:25:41.867Z,99620.95
2019-05-30T20:28:09.050Z,99627.89
2019-05-30T20:30:39.141Z,99627.89
2019-05-30T20:33:08.726Z,99631.27
2019-05-30T20:35:40.066Z,99634.50
2019-05-30T20:38:09.653Z,99627.70
2019-05-30T20:40:39.180Z,99638.27
2019-05-30T20:43:08.554Z,99638.27
2019-05-30T20:45:41.985Z,99637.55
2019-05-30T20:48:09.142Z,99650.66
2019-05-30T20:50:39.109Z,99650.66
2019-05-30T20:53:08.507Z,99652.39
2019-05-30T20:55:38.375Z,99645.48
2019-05-30T20:58:07.924Z,99652.81
2019-05-30T21:00:40.182Z,99652.81
2019-05-30T21:03:09.773Z,99649.66
2019-05-30T21:05:41.964Z,99654.02
2019-05-30T21:08:12.671Z,99651.82
2019-05-30T21:10:43.290Z,99651.82
2019-05-30T21:13:12.615Z,99659.05
2019-05-30T21:15:43.849Z,99659.05
2019-05-30T21:18:13.207Z,99650.72
2019-05-30T21:20:42.592Z,99650.72
2019-05-30T21:23:11.999Z,99640.03
2019-05-30T21:25:41.486Z,99645.51
2019-05-30T21:28:10.896Z,99653.06
2019-05-30T21:30:41.314Z,99653.06
2019-05-30T21:33:10.814Z,99656.55
2019-05-30T21:35:41.687Z,99654.17
2019-05-30T21:38:11.229Z,99649.89
2019-05-30T21:40:40.679Z,99651.22
2019-05-30T21:43:10.107Z,99665.69
2019-05-30T21:45:40.406Z,99658.28
2019-05-30T21:48:09.848Z,99659.12
2019-05-30T21:50:40.939Z,99654.12
2019-05-30T21:53:10.449Z,99654.12
2019-05-30T21:55:39.884Z,99655.12
2019-05-30T21:58:09.305Z,99651.94
2019-05-30T22:00:50.985Z,99657.50
2019-05-30T22:03:20.369Z,99655.94
2019-05-30T22:05:51.747Z,99646.14
2019-05-30T22:08:20.891Z,99649.64
2019-05-30T22:10:51.628Z,99638.54
2019-05-30T22:13:21.077Z,99645.88
2019-05-30T22:15:50.538Z,99647.03
2019-05-30T22:18:19.968Z,99648.06
2019-05-30T22:20:49.936Z,99650.63
2019-05-30T22:23:19.480Z,99648.94
2019-05-30T22:25:48.853Z,99657.40
2019-05-30T22:28:18.302Z,99655.56
2019-05-30T22:30:48.524Z,99662.50
2019-05-30T22:33:17.995Z,99666.92
2019-05-30T22:35:47.350Z,99659.64
2019-05-30T22:38:16.799Z,99657.94
2019-05-30T22:40:46.128Z,99661.73
2019-05-30T22:43:24.884Z,99656.94
2019-05-30T22:45:46.663Z,99664.35
2019-05-30T22:48:17.516Z,99658.47
2019-05-30T22:50:46.912Z,99664.00
2019-05-30T22:53:16.389Z,99664.00
2019-05-30T22:55:46.852Z,99665.17
2019-05-30T22:58:16.444Z,99662.47
2019-05-30T23:00:46.086Z,99665.55
2019-05-30T23:03:15.574Z,99661.35
2019-05-30T23:05:45.266Z,99662.89
2019-05-30T23:08:14.863Z,99659.69
2019-05-30T23:10:45.602Z,99657.64
2019-05-30T23:13:15.126Z,99657.36
2019-05-30T23:15:44.502Z,99653.02
2019-05-30T23:18:13.945Z,99651.03
2019-05-30T23:20:43.364Z,99650.70
2019-05-30T23:23:12.775Z,99652.03
2019-05-30T23:25:42.226Z,99655.19
2019-05-30T23:28:11.676Z,99647.49
2019-05-30T23:30:41.123Z,99649.70
2019-05-30T23:33:10.550Z,99652.70
2019-05-30T23:35:39.995Z,99649.13
2019-05-30T23:38:09.432Z,99651.70
2019-05-30T23:40:38.874Z,99654.45
2019-05-30T23:43:08.322Z,99659.48
2019-05-30T23:45:37.815Z,99662.17
2019-05-30T23:48:07.225Z,99664.21
2019-05-30T23:50:36.584Z,99656.39
2019-05-30T23:53:06.035Z,99660.38
2019-05-30T23:55:35.473Z,99664.84
2019-05-30T23:58:05.001Z,99665.67
